sensor_id;sensor_type;location;lat;lon;timestamp;temperature;humidity
6552;DHT22;3309;48.708;9.290;2024-01-15T00:02:16;-0.60;1.00
6552;DHT22;3309;48.708;9.290;2024-01-15T00:04:42;-0.60;1.00
6552;DHT22;3309;48.708;9.290;2024-01-15T00:07:09;0.00;1.00
6552;DHT22;3309;48.708;9.290;2024-01-15T00:09:35;-0.60;1.00
6552;DHT22;3309;48.708;9.290;2024-01-15T00:12:01;-0.50;1.00
6552;DHT22;3309;48.708;9.290;2024-01-15T00:14:27;-0.50;1.00
6552;DHT22;3309;48.708;9.290;2024-01-15T00:16:52;-0.50;1.00
6552;DHT22;3309;48.708;9.290;2024-01-15T00:19:23;-0.50;1.00
6552;DHT22;3309;48.708;9.290;2024-01-15T00:21:49;-0.50;99.90
6552;DHT22;3309;48.708;9.290;2024-01-15T00:24:15;-0.50;99.90
6552;DHT22;3309;48.708;9.290;2024-01-15T00:26:41;-0.50;99.90
6552;DHT22;3309;48.708;9.290;2024-01-15T00:29:07;-0.50;1.00
6552;DHT22;3309;48.708;9.290;2024-01-15T00:31:33;-0.50;99.90
6552;DHT22;3309;48.708;9.290;2024-01-15T00:33:58;-0.60;1.00
6552;DHT22;3309;48.708;9.290;2024-01-15T00:36:24;-0.60;1.00
6552;DHT22;3309;48.708;9.290;2024-01-15T00:38:50;-0.70;1.00
6552;DHT22;3309;48.708;9.290;2024-01-15T00:41:16;-0.70;1.00
6552;DHT22;3309;48.708;9.290;2024-01-15T00:43:42;-0.70;1.00
6552;DHT22;3309;48.708;9.290;2024-01-15T00:46:08;-0.70;1.00
6552;DHT22;3309;48.708;9.290;2024-01-15T00:48:33;-0.70;1.00
6552;DHT22;3309;48.708;9.290;2024-01-15T00:50:59;-0.70;1.00
6552;DHT22;3309;48.708;9.290;2024-01-15T00:53:25;-0.70;1.00
6552;DHT22;3309;48.708;9.290;2024-01-15T00:55:51;-0.80;1.00
6552;DHT22;3309;48.708;9.290;2024-01-15T00:58:16;-1.20;1.00
6552;DHT22;3309;48.708;9.290;2024-01-15T01:00:42;-0.90;1.00
6552;DHT22;3309;48.708;9.290;2024-01-15T01:03:08;-0.90;1.00
6552;DHT22;3309;48.708;9.290;2024-01-15T01:05:34;-0.80;1.00
6552;DHT22;3309;48.708;9.290;2024-01-15T01:08:00;-0.80;1.00
6552;DHT22;3309;48.708;9.290;2024-01-15T01:10:27;-0.80;1.00
6552;DHT22;3309;48.708;9.290;2024-01-15T01:12:52;-0.70;1.00
6552;DHT22;3309;48.708;9.290;2024-01-15T01:15:18;-0.70;1.00
6552;DHT22;3309;48.708;9.290;2024-01-15T01:17:43;-0.80;1.00
6552;DHT22;3309;48.708;9.290;2024-01-15T01:20:09;-0.80;1.00
6552;DHT22;3309;48.708;9.290;2024-01-15T01:22:35;-0.80;1.00
6552;DHT22;3309;48.708;9.290;2024-01-15T01:25:01;-0.80;1.00
6552;DHT22;3309;48.708;9.290;2024-01-15T01:27:27;-0.80;1.00
6552;DHT22;3309;48.708;9.290;2024-01-15T01:29:52;-0.80;1.00
6552;DHT22;3309;48.708;9.290;2024-01-15T01:32:18;-0.80;1.00
6552;DHT22;3309;48.708;9.290;2024-01-15T01:34:44;-0.80;1.00
6552;DHT22;3309;48.708;9.290;2024-01-15T01:37:10;-0.80;1.00
6552;DHT22;3309;48.708;9.290;2024-01-15T01:39:38;-0.70;18.10
6552;DHT22;3309;48.708;9.290;2024-01-15T01:42:04;-0.70;24.30
6552;DHT22;3309;48.708;9.290;2024-01-15T01:44:30;-0.70;1.00
6552;DHT22;3309;48.708;9.290;2024-01-15T01:46:56;-0.80;99.90
6552;DHT22;3309;48.708;9.290;2024-01-15T01:49:23;-0.70;99.90
6552;DHT22;3309;48.708;9.290;2024-01-15T01:51:48;-0.70;99.90
6552;DHT22;3309;48.708;9.290;2024-01-15T01:54:14;-0.70;99.90
6552;DHT22;3309;48.708;9.290;2024-01-15T01:56:43;-0.60;99.90
6552;DHT22;3309;48.708;9.290;2024-01-15T01:59:09;-0.60;99.90
6552;DHT22;3309;48.708;9.290;2024-01-15T02:01:36;-0.70;99.90
6552;DHT22;3309;48.708;9.290;2024-01-15T02:04:03;-0.70;99.90
6552;DHT22;3309;48.708;9.290;2024-01-15T02:06:29;-0.60;99.90
6552;DHT22;3309;48.708;9.290;2024-01-15T02:08:55;-0.60;99.90
6552;DHT22;3309;48.708;9.290;2024-01-15T02:11:20;-0.60;99.90
6552;DHT22;3309;48.708;9.290;2024-01-15T02:13:46;-0.60;99.90
6552;DHT22;3309;48.708;9.290;2024-01-15T02:16:12;-0.60;99.90
6552;DHT22;3309;48.708;9.290;2024-01-15T02:18:45;-0.60;99.90
6552;DHT22;3309;48.708;9.290;2024-01-15T02:21:11;-0.60;99.90
6552;DHT22;3309;48.708;9.290;2024-01-15T02:23:38;-0.50;99.90
6552;DHT22;3309;48.708;9.290;2024-01-15T02:26:04;-0.50;99.90
6552;DHT22;3309;48.708;9.290;2024-01-15T02:28:30;-0.50;99.90
6552;DHT22;3309;48.708;9.290;2024-01-15T02:30:56;-0.40;99.90
6552;DHT22;3309;48.708;9.290;2024-01-15T02:33:22;-0.50;99.90
6552;DHT22;3309;48.708;9.290;2024-01-15T02:35:47;-0.50;99.90
6552;DHT22;3309;48.708;9.290;2024-01-15T02:38:15;-0.50;99.90
6552;DHT22;3309;48.708;9.290;2024-01-15T02:40:41;-0.50;99.90
6552;DHT22;3309;48.708;9.290;2024-01-15T02:43:07;-0.40;99.90
6552;DHT22;3309;48.708;9.290;2024-01-15T02:45:32;-0.50;1.00
6552;DHT22;3309;48.708;9.290;2024-01-15T02:47:58;-0.40;1.00
6552;DHT22;3309;48.708;9.290;2024-01-15T02:50:24;-0.30;1.00
6552;DHT22;3309;48.708;9.290;2024-01-15T02:52:49;-0.40;1.00
6552;DHT22;3309;48.708;9.290;2024-01-15T02:55:15;-0.40;99.90
6552;DHT22;3309;48.708;9.290;2024-01-15T02:57:41;-0.40;99.90
6552;DHT22;3309;48.708;9.290;2024-01-15T03:00:06;-0.40;99.90
6552;DHT22;3309;48.708;9.290;2024-01-15T03:02:35;-0.30;99.90
6552;DHT22;3309;48.708;9.290;2024-01-15T03:05:01;-0.40;99.90
6552;DHT22;3309;48.708;9.290;2024-01-15T03:07:28;-0.80;99.90
6552;DHT22;3309;48.708;9.290;2024-01-15T03:09:56;-0.40;99.90
6552;DHT22;3309;48.708;9.290;2024-01-15T03:12:21;-0.50;99.90
6552;DHT22;3309;48.708;9.290;2024-01-15T03:14:47;-0.50;99.90
6552;DHT22;3309;48.708;9.290;2024-01-15T03:17:12;-0.50;99.90
6552;DHT22;3309;48.708;9.290;2024-01-15T03:19:38;-0.50;99.90
6552;DHT22;3309;48.708;9.290;2024-01-15T03:22:04;-0.50;99.90
6552;DHT22;3309;48.708;9.290;2024-01-15T03:24:31;-0.50;99.90
6552;DHT22;3309;48.708;9.290;2024-01-15T03:26:56;-0.50;99.90
6552;DHT22;3309;48.708;9.290;2024-01-15T03:29:22;-0.50;99.90
6552;DHT22;3309;48.708;9.290;2024-01-15T03:31:48;-0.50;99.90
6552;DHT22;3309;48.708;9.290;2024-01-15T03:34:13;-0.60;99.90
6552;DHT22;3309;48.708;9.290;2024-01-15T03:36:39;-0.60;1.00
6552;DHT22;3309;48.708;9.290;2024-01-15T03:39:06;-0.70;1.00
6552;DHT22;3309;48.708;9.290;2024-01-15T03:41:31;-0.70;1.00
6552;DHT22;3309;48.708;9.290;2024-01-15T03:43:57;-0.70;1.00
6552;DHT22;3309;48.708;9.290;2024-01-15T03:46:23;-0.80;99.90
6552;DHT22;3309;48.708;9.290;2024-01-15T03:48:49;-0.80;99.90
6552;DHT22;3309;48.708;9.290;2024-01-15T03:51:18;-0.80;1.00
6552;DHT22;3309;48.708;9.290;2024-01-15T03:53:44;-0.80;1.00
6552;DHT22;3309;48.708;9.290;2024-01-15T03:56:10;-0.80;1.00
6552;DHT22;3309;48.708;9.290;2024-01-15T03:58:36;-0.80;1.00
6552;DHT22;3309;48.708;9.290;2024-01-15T04:01:01;-0.80;1.00
6552;DHT22;3309;48.708;9.290;2024-01-15T04:03:27;-0.80;1.00
6552;DHT22;3309;48.708;9.290;2024-01-15T04:05:52;-0.70;1.00
6552;DHT22;3309;48.708;9.290;2024-01-15T04:08:18;-0.70;1.00
6552;DHT22;3309;48.708;9.290;2024-01-15T04:10:43;-0.70;1.00
6552;DHT22;3309;48.708;9.290;2024-01-15T04:13:09;-0.60;1.00
6552;DHT22;3309;48.708;9.290;2024-01-15T04:15:34;-0.60;1.00
6552;DHT22;3309;48.708;9.290;2024-01-15T04:18:02;-0.60;1.00
6552;DHT22;3309;48.708;9.290;2024-01-15T04:20:28;-0.60;1.00
6552;DHT22;3309;48.708;9.290;2024-01-15T04:22:53;-0.60;1.00
6552;DHT22;3309;48.708;9.290;2024-01-15T04:25:19;-0.60;1.00
6552;DHT22;3309;48.708;9.290;2024-01-15T04:27:44;-0.50;1.00
6552;DHT22;3309;48.708;9.290;2024-01-15T04:30:10;-0.50;1.00
6552;DHT22;3309;48.708;9.290;2024-01-15T04:32:36;-0.50;1.00
6552;DHT22;3309;48.708;9.290;2024-01-15T04:35:02;-0.40;1.00
6552;DHT22;3309;48.708;9.290;2024-01-15T04:37:27;-0.40;1.00
6552;DHT22;3309;48.708;9.290;2024-01-15T04:39:54;-0.40;1.00
6552;DHT22;3309;48.708;9.290;2024-01-15T04:42:21;-0.30;1.00
6552;DHT22;3309;48.708;9.290;2024-01-15T04:44:47;-0.30;1.00
6552;DHT22;3309;48.708;9.290;2024-01-15T04:47:12;-0.30;2.80
6552;DHT22;3309;48.708;9.290;2024-01-15T04:49:38;-0.30;92.10
6552;DHT22;3309;48.708;9.290;2024-01-15T04:52:03;-0.30;99.90
6552;DHT22;3309;48.708;9.290;2024-01-15T04:54:29;-0.30;99.90
6552;DHT22;3309;48.708;9.290;2024-01-15T04:56:55;-0.30;99.90
6552;DHT22;3309;48.708;9.290;2024-01-15T04:59:20;-0.20;99.90
6552;DHT22;3309;48.708;9.290;2024-01-15T05:01:46;-0.20;80.30
6552;DHT22;3309;48.708;9.290;2024-01-15T05:04:12;-0.20;99.90
6552;DHT22;3309;48.708;9.290;2024-01-15T05:06:38;-0.20;99.90
6552;DHT22;3309;48.708;9.290;2024-01-15T05:09:03;-0.20;1.00
6552;DHT22;3309;48.708;9.290;2024-01-15T05:11:29;-0.20;1.00
6552;DHT22;3309;48.708;9.290;2024-01-15T05:13:55;-0.10;99.90
6552;DHT22;3309;48.708;9.290;2024-01-15T05:16:21;-0.10;99.90
6552;DHT22;3309;48.708;9.290;2024-01-15T05:18:46;-0.10;99.90
6552;DHT22;3309;48.708;9.290;2024-01-15T05:21:12;-0.10;99.90
6552;DHT22;3309;48.708;9.290;2024-01-15T05:23:38;0.00;87.30
6552;DHT22;3309;48.708;9.290;2024-01-15T05:26:04;0.00;9.20
6552;DHT22;3309;48.708;9.290;2024-01-15T05:28:29;0.00;1.00
6552;DHT22;3309;48.708;9.290;2024-01-15T05:30:55;-0.10;99.90
6552;DHT22;3309;48.708;9.290;2024-01-15T05:33:22;-0.10;99.90
6552;DHT22;3309;48.708;9.290;2024-01-15T05:35:48;-0.10;1.00
6552;DHT22;3309;48.708;9.290;2024-01-15T05:38:16;-0.10;21.20
6552;DHT22;3309;48.708;9.290;2024-01-15T05:40:41;-0.10;99.90
6552;DHT22;3309;48.708;9.290;2024-01-15T05:43:07;-0.10;1.00
6552;DHT22;3309;48.708;9.290;2024-01-15T05:45:34;-0.20;1.00
6552;DHT22;3309;48.708;9.290;2024-01-15T05:48:00;-0.20;6.10
6552;DHT22;3309;48.708;9.290;2024-01-15T05:50:25;-0.20;1.00
6552;DHT22;3309;48.708;9.290;2024-01-15T05:52:51;-0.10;1.00
6552;DHT22;3309;48.708;9.290;2024-01-15T05:55:17;-0.10;99.90
6552;DHT22;3309;48.708;9.290;2024-01-15T05:57:44;-0.10;99.90
6552;DHT22;3309;48.708;9.290;2024-01-15T06:00:10;-0.10;99.90
6552;DHT22;3309;48.708;9.290;2024-01-15T06:02:37;-0.10;99.90
6552;DHT22;3309;48.708;9.290;2024-01-15T06:05:03;-0.10;99.90
6552;DHT22;3309;48.708;9.290;2024-01-15T06:07:29;-0.10;99.90
6552;DHT22;3309;48.708;9.290;2024-01-15T06:09:55;0.00;1.00
6552;DHT22;3309;48.708;9.290;2024-01-15T06:12:22;0.00;1.00
6552;DHT22;3309;48.708;9.290;2024-01-15T06:14:48;-0.10;1.00
6552;DHT22;3309;48.708;9.290;2024-01-15T06:17:14;-0.10;36.00
6552;DHT22;3309;48.708;9.290;2024-01-15T06:19:39;0.00;1.00
6552;DHT22;3309;48.708;9.290;2024-01-15T06:22:05;0.00;99.90
6552;DHT22;3309;48.708;9.290;2024-01-15T06:24:30;0.00;99.90
6552;DHT22;3309;48.708;9.290;2024-01-15T06:26:56;0.00;99.90
6552;DHT22;3309;48.708;9.290;2024-01-15T06:29:22;0.00;99.90
6552;DHT22;3309;48.708;9.290;2024-01-15T06:31:49;0.00;99.90
6552;DHT22;3309;48.708;9.290;2024-01-15T06:34:15;0.50;1.00
6552;DHT22;3309;48.708;9.290;2024-01-15T06:36:40;0.00;99.90
6552;DHT22;3309;48.708;9.290;2024-01-15T06:39:06;0.10;99.90
6552;DHT22;3309;48.708;9.290;2024-01-15T06:41:32;0.00;1.00
6552;DHT22;3309;48.708;9.290;2024-01-15T06:43:57;0.00;1.00
6552;DHT22;3309;48.708;9.290;2024-01-15T06:46:23;0.00;1.00
6552;DHT22;3309;48.708;9.290;2024-01-15T06:48:49;0.00;18.70
6552;DHT22;3309;48.708;9.290;2024-01-15T06:51:16;0.10;1.00
6552;DHT22;3309;48.708;9.290;2024-01-15T06:53:42;0.00;1.00
6552;DHT22;3309;48.708;9.290;2024-01-15T06:56:08;0.00;1.00
6552;DHT22;3309;48.708;9.290;2024-01-15T06:58:33;0.10;1.00
6552;DHT22;3309;48.708;9.290;2024-01-15T07:01:00;0.10;99.90
6552;DHT22;3309;48.708;9.290;2024-01-15T07:03:27;0.10;1.00
6552;DHT22;3309;48.708;9.290;2024-01-15T07:05:53;0.10;99.90
6552;DHT22;3309;48.708;9.290;2024-01-15T07:08:19;0.20;99.90
6552;DHT22;3309;48.708;9.290;2024-01-15T07:10:45;0.20;1.00
6552;DHT22;3309;48.708;9.290;2024-01-15T07:13:11;0.10;1.00
6552;DHT22;3309;48.708;9.290;2024-01-15T07:15:39;0.20;99.90
6552;DHT22;3309;48.708;9.290;2024-01-15T07:18:05;0.20;21.50
6552;DHT22;3309;48.708;9.290;2024-01-15T07:20:32;0.20;1.00
6552;DHT22;3309;48.708;9.290;2024-01-15T07:22:57;0.30;99.90
6552;DHT22;3309;48.708;9.290;2024-01-15T07:25:23;0.30;99.90
6552;DHT22;3309;48.708;9.290;2024-01-15T07:27:51;0.30;1.00
6552;DHT22;3309;48.708;9.290;2024-01-15T07:30:17;0.40;1.00
6552;DHT22;3309;48.708;9.290;2024-01-15T07:32:42;0.30;1.00
6552;DHT22;3309;48.708;9.290;2024-01-15T07:35:08;0.40;1.00
6552;DHT22;3309;48.708;9.290;2024-01-15T07:37:34;0.30;1.00
6552;DHT22;3309;48.708;9.290;2024-01-15T07:39:59;0.40;1.00
6552;DHT22;3309;48.708;9.290;2024-01-15T07:42:25;0.40;1.00
6552;DHT22;3309;48.708;9.290;2024-01-15T07:44:51;0.50;1.00
6552;DHT22;3309;48.708;9.290;2024-01-15T07:47:17;0.50;1.00
6552;DHT22;3309;48.708;9.290;2024-01-15T07:49:42;0.60;1.00
6552;DHT22;3309;48.708;9.290;2024-01-15T07:52:09;0.60;1.00
6552;DHT22;3309;48.708;9.290;2024-01-15T07:54:36;0.60;1.00
6552;DHT22;3309;48.708;9.290;2024-01-15T07:57:02;0.50;1.00
6552;DHT22;3309;48.708;9.290;2024-01-15T07:59:31;0.50;1.00
6552;DHT22;3309;48.708;9.290;2024-01-15T08:01:58;0.50;1.00
6552;DHT22;3309;48.708;9.290;2024-01-15T08:04:24;0.60;1.00
6552;DHT22;3309;48.708;9.290;2024-01-15T08:06:50;0.60;1.00
6552;DHT22;3309;48.708;9.290;2024-01-15T08:09:16;0.60;99.90
6552;DHT22;3309;48.708;9.290;2024-01-15T08:11:42;0.70;99.90
6552;DHT22;3309;48.708;9.290;2024-01-15T08:14:09;0.60;99.90
6552;DHT22;3309;48.708;9.290;2024-01-15T08:16:38;0.70;99.90
6552;DHT22;3309;48.708;9.290;2024-01-15T08:19:04;0.80;99.90
6552;DHT22;3309;48.708;9.290;2024-01-15T08:21:30;0.80;99.90
6552;DHT22;3309;48.708;9.290;2024-01-15T08:23:57;0.80;99.90
6552;DHT22;3309;48.708;9.290;2024-01-15T08:26:23;0.80;99.90
6552;DHT22;3309;48.708;9.290;2024-01-15T08:28:49;0.90;99.90
6552;DHT22;3309;48.708;9.290;2024-01-15T08:31:14;0.90;99.90
6552;DHT22;3309;48.708;9.290;2024-01-15T08:33:40;0.90;99.90
6552;DHT22;3309;48.708;9.290;2024-01-15T08:36:06;1.00;99.90
6552;DHT22;3309;48.708;9.290;2024-01-15T08:38:32;0.90;99.90
6552;DHT22;3309;48.708;9.290;2024-01-15T08:40:57;0.90;99.90
6552;DHT22;3309;48.708;9.290;2024-01-15T08:43:26;1.00;99.90
6552;DHT22;3309;48.708;9.290;2024-01-15T08:45:52;1.00;99.90
6552;DHT22;3309;48.708;9.290;2024-01-15T08:48:19;1.00;99.90
6552;DHT22;3309;48.708;9.290;2024-01-15T08:50:45;1.10;99.90
6552;DHT22;3309;48.708;9.290;2024-01-15T08:53:13;1.40;98.40
6552;DHT22;3309;48.708;9.290;2024-01-15T08:55:39;1.10;90.50
6552;DHT22;3309;48.708;9.290;2024-01-15T08:58:05;1.20;83.90
6552;DHT22;3309;48.708;9.290;2024-01-15T09:00:31;1.30;43.90
6552;DHT22;3309;48.708;9.290;2024-01-15T09:02:57;1.40;20.40
6552;DHT22;3309;48.708;9.290;2024-01-15T09:05:23;1.40;1.00
6552;DHT22;3309;48.708;9.290;2024-01-15T09:07:48;1.40;1.00
6552;DHT22;3309;48.708;9.290;2024-01-15T09:10:14;1.40;1.00
6552;DHT22;3309;48.708;9.290;2024-01-15T09:12:40;1.40;1.00
6552;DHT22;3309;48.708;9.290;2024-01-15T09:15:05;1.40;1.00
6552;DHT22;3309;48.708;9.290;2024-01-15T09:17:34;1.50;1.00
6552;DHT22;3309;48.708;9.290;2024-01-15T09:20:00;1.50;1.00
6552;DHT22;3309;48.708;9.290;2024-01-15T09:22:25;1.70;1.00
6552;DHT22;3309;48.708;9.290;2024-01-15T09:24:51;1.60;1.00
6552;DHT22;3309;48.708;9.290;2024-01-15T09:27:16;1.70;1.00
6552;DHT22;3309;48.708;9.290;2024-01-15T09:29:42;1.70;1.00
6552;DHT22;3309;48.708;9.290;2024-01-15T09:32:11;1.70;1.00
6552;DHT22;3309;48.708;9.290;2024-01-15T09:34:36;1.70;1.00
6552;DHT22;3309;48.708;9.290;2024-01-15T09:37:02;1.70;1.00
6552;DHT22;3309;48.708;9.290;2024-01-15T09:39:29;1.70;1.00
6552;DHT22;3309;48.708;9.290;2024-01-15T09:41:56;1.80;1.00
6552;DHT22;3309;48.708;9.290;2024-01-15T09:44:21;1.80;1.00
6552;DHT22;3309;48.708;9.290;2024-01-15T09:46:57;1.80;1.00
6552;DHT22;3309;48.708;9.290;2024-01-15T09:49:23;1.90;1.00
6552;DHT22;3309;48.708;9.290;2024-01-15T09:51:50;1.90;1.00
6552;DHT22;3309;48.708;9.290;2024-01-15T09:54:16;1.90;1.00
6552;DHT22;3309;48.708;9.290;2024-01-15T09:56:46;2.00;1.00
6552;DHT22;3309;48.708;9.290;2024-01-15T09:59:18;2.10;1.00
6552;DHT22;3309;48.708;9.290;2024-01-15T10:01:45;2.00;1.00
6552;DHT22;3309;48.708;9.290;2024-01-15T10:04:13;2.00;1.00
6552;DHT22;3309;48.708;9.290;2024-01-15T10:06:40;2.10;1.00
6552;DHT22;3309;48.708;9.290;2024-01-15T10:09:08;2.10;1.00
6552;DHT22;3309;48.708;9.290;2024-01-15T10:11:34;2.20;1.00
6552;DHT22;3309;48.708;9.290;2024-01-15T10:14:00;2.20;1.00
6552;DHT22;3309;48.708;9.290;2024-01-15T10:16:26;2.20;1.00
6552;DHT22;3309;48.708;9.290;2024-01-15T10:18:52;2.20;1.00
6552;DHT22;3309;48.708;9.290;2024-01-15T10:21:18;2.20;1.00
6552;DHT22;3309;48.708;9.290;2024-01-15T10:23:43;2.40;1.00
6552;DHT22;3309;48.708;9.290;2024-01-15T10:26:09;2.30;1.00
6552;DHT22;3309;48.708;9.290;2024-01-15T10:28:37;2.30;1.00
6552;DHT22;3309;48.708;9.290;2024-01-15T10:31:02;2.30;1.00
6552;DHT22;3309;48.708;9.290;2024-01-15T10:33:28;2.30;1.00
6552;DHT22;3309;48.708;9.290;2024-01-15T10:35:55;2.30;1.00
6552;DHT22;3309;48.708;9.290;2024-01-15T10:38:22;2.30;1.00
6552;DHT22;3309;48.708;9.290;2024-01-15T10:40:51;2.30;1.00
6552;DHT22;3309;48.708;9.290;2024-01-15T10:43:17;2.30;1.00
6552;DHT22;3309;48.708;9.290;2024-01-15T10:45:45;2.30;1.00
6552;DHT22;3309;48.708;9.290;2024-01-15T10:48:11;2.30;1.00
6552;DHT22;3309;48.708;9.290;2024-01-15T10:50:37;2.30;1.00
6552;DHT22;3309;48.708;9.290;2024-01-15T10:53:03;2.30;1.00
6552;DHT22;3309;48.708;9.290;2024-01-15T10:55:30;2.30;1.00
6552;DHT22;3309;48.708;9.290;2024-01-15T10:57:58;2.30;1.00
6552;DHT22;3309;48.708;9.290;2024-01-15T11:00:24;2.40;1.00
6552;DHT22;3309;48.708;9.290;2024-01-15T11:02:50;2.40;1.00
6552;DHT22;3309;48.708;9.290;2024-01-15T11:05:16;2.40;1.00
6552;DHT22;3309;48.708;9.290;2024-01-15T11:07:44;2.40;1.00
6552;DHT22;3309;48.708;9.290;2024-01-15T11:10:42;2.40;1.00
6552;DHT22;3309;48.708;9.290;2024-01-15T11:16:04;2.40;1.00
6552;DHT22;3309;48.708;9.290;2024-01-15T11:21:24;2.20;1.00
6552;DHT22;3309;48.708;9.290;2024-01-15T11:23:56;2.20;1.00
6552;DHT22;3309;48.708;9.290;2024-01-15T11:26:45;2.10;1.00
6552;DHT22;3309;48.708;9.290;2024-01-15T11:29:33;2.10;1.00
6552;DHT22;3309;48.708;9.290;2024-01-15T11:32:07;2.20;1.00
6552;DHT22;3309;48.708;9.290;2024-01-15T11:34:54;2.20;1.00
6552;DHT22;3309;48.708;9.290;2024-01-15T11:37:23;2.30;1.00
6552;DHT22;3309;48.708;9.290;2024-01-15T11:39:51;2.30;1.00
6552;DHT22;3309;48.708;9.290;2024-01-15T11:42:16;2.30;1.00
6552;DHT22;3309;48.708;9.290;2024-01-15T11:44:44;2.20;1.00
6552;DHT22;3309;48.708;9.290;2024-01-15T11:47:11;2.20;1.00
6552;DHT22;3309;48.708;9.290;2024-01-15T11:52:22;2.30;1.00
6552;DHT22;3309;48.708;9.290;2024-01-15T11:57:41;2.10;1.00
6552;DHT22;3309;48.708;9.290;2024-01-15T12:00:11;2.20;1.00
6552;DHT22;3309;48.708;9.290;2024-01-15T12:02:39;2.20;8.00
6552;DHT22;3309;48.708;9.290;2024-01-15T12:05:05;2.20;10.90
6552;DHT22;3309;48.708;9.290;2024-01-15T12:07:33;2.20;35.70
6552;DHT22;3309;48.708;9.290;2024-01-15T12:09:58;2.10;52.10
6552;DHT22;3309;48.708;9.290;2024-01-15T12:13:00;2.10;30.90
6552;DHT22;3309;48.708;9.290;2024-01-15T12:15:28;2.10;81.70
6552;DHT22;3309;48.708;9.290;2024-01-15T12:17:58;2.00;99.90
6552;DHT22;3309;48.708;9.290;2024-01-15T12:20:25;2.00;1.00
6552;DHT22;3309;48.708;9.290;2024-01-15T12:22:51;1.90;1.00
6552;DHT22;3309;48.708;9.290;2024-01-15T12:25:17;1.80;1.00
6552;DHT22;3309;48.708;9.290;2024-01-15T12:27:42;1.80;99.90
6552;DHT22;3309;48.708;9.290;2024-01-15T12:30:11;1.90;1.00
6552;DHT22;3309;48.708;9.290;2024-01-15T12:32:37;1.80;1.00
6552;DHT22;3309;48.708;9.290;2024-01-15T12:35:03;1.70;1.00
6552;DHT22;3309;48.708;9.290;2024-01-15T12:37:30;1.70;99.90
6552;DHT22;3309;48.708;9.290;2024-01-15T12:39:55;1.50;1.00
6552;DHT22;3309;48.708;9.290;2024-01-15T12:42:25;1.50;99.90
6552;DHT22;3309;48.708;9.290;2024-01-15T12:44:51;1.50;1.00
6552;DHT22;3309;48.708;9.290;2024-01-15T12:47:16;1.40;1.00
6552;DHT22;3309;48.708;9.290;2024-01-15T12:49:47;1.40;1.00
6552;DHT22;3309;48.708;9.290;2024-01-15T12:52:15;1.40;1.00
6552;DHT22;3309;48.708;9.290;2024-01-15T12:54:40;1.50;1.00
6552;DHT22;3309;48.708;9.290;2024-01-15T12:57:06;1.40;1.00
6552;DHT22;3309;48.708;9.290;2024-01-15T12:59:31;1.30;1.00
6552;DHT22;3309;48.708;9.290;2024-01-15T13:01:57;1.10;1.00
6552;DHT22;3309;48.708;9.290;2024-01-15T13:04:23;1.10;1.00
6552;DHT22;3309;48.708;9.290;2024-01-15T13:06:52;1.20;1.00
6552;DHT22;3309;48.708;9.290;2024-01-15T13:09:18;1.10;1.00
6552;DHT22;3309;48.708;9.290;2024-01-15T13:11:47;1.10;1.00
6552;DHT22;3309;48.708;9.290;2024-01-15T13:14:13;1.20;3.50
6552;DHT22;3309;48.708;9.290;2024-01-15T13:16:40;1.20;1.00
6552;DHT22;3309;48.708;9.290;2024-01-15T13:19:07;1.30;1.00
6552;DHT22;3309;48.708;9.290;2024-01-15T13:21:33;1.30;1.00
6552;DHT22;3309;48.708;9.290;2024-01-15T13:24:00;1.30;1.00
6552;DHT22;3309;48.708;9.290;2024-01-15T13:26:26;1.40;1.00
6552;DHT22;3309;48.708;9.290;2024-01-15T13:28:51;1.40;1.00
6552;DHT22;3309;48.708;9.290;2024-01-15T13:31:17;1.40;1.00
6552;DHT22;3309;48.708;9.290;2024-01-15T13:33:42;1.40;1.00
6552;DHT22;3309;48.708;9.290;2024-01-15T13:36:08;1.40;1.00
6552;DHT22;3309;48.708;9.290;2024-01-15T13:38:36;1.50;1.00
6552;DHT22;3309;48.708;9.290;2024-01-15T13:41:04;1.40;1.00
6552;DHT22;3309;48.708;9.290;2024-01-15T13:43:31;1.50;2.40
6552;DHT22;3309;48.708;9.290;2024-01-15T13:45:57;1.60;1.00
6552;DHT22;3309;48.708;9.290;2024-01-15T13:48:22;1.60;1.00
6552;DHT22;3309;48.708;9.290;2024-01-15T13:50:48;1.60;1.00
6552;DHT22;3309;48.708;9.290;2024-01-15T13:53:16;1.60;1.00
6552;DHT22;3309;48.708;9.290;2024-01-15T13:55:41;1.70;1.00
6552;DHT22;3309;48.708;9.290;2024-01-15T13:58:07;1.70;1.00
6552;DHT22;3309;48.708;9.290;2024-01-15T14:00:32;1.80;1.00
6552;DHT22;3309;48.708;9.290;2024-01-15T14:02:58;1.80;1.00
6552;DHT22;3309;48.708;9.290;2024-01-15T14:05:24;1.80;1.00
6552;DHT22;3309;48.708;9.290;2024-01-15T14:07:50;1.70;1.00
6552;DHT22;3309;48.708;9.290;2024-01-15T14:10:15;1.50;1.00
6552;DHT22;3309;48.708;9.290;2024-01-15T14:12:41;1.60;1.00
6552;DHT22;3309;48.708;9.290;2024-01-15T14:15:07;1.60;1.00
6552;DHT22;3309;48.708;9.290;2024-01-15T14:17:33;1.60;1.00
6552;DHT22;3309;48.708;9.290;2024-01-15T14:19:58;1.80;1.00
6552;DHT22;3309;48.708;9.290;2024-01-15T14:22:24;1.70;1.00
6552;DHT22;3309;48.708;9.290;2024-01-15T14:24:50;1.70;1.00
6552;DHT22;3309;48.708;9.290;2024-01-15T14:27:16;1.70;1.00
6552;DHT22;3309;48.708;9.290;2024-01-15T14:29:42;1.80;1.00
6552;DHT22;3309;48.708;9.290;2024-01-15T14:32:07;1.70;1.00
6552;DHT22;3309;48.708;9.290;2024-01-15T14:34:33;1.80;1.00
6552;DHT22;3309;48.708;9.290;2024-01-15T14:37:01;1.80;1.00
6552;DHT22;3309;48.708;9.290;2024-01-15T14:39:27;1.70;1.00
6552;DHT22;3309;48.708;9.290;2024-01-15T14:41:52;1.80;1.00
6552;DHT22;3309;48.708;9.290;2024-01-15T14:44:18;1.70;1.00
6552;DHT22;3309;48.708;9.290;2024-01-15T14:46:43;1.70;1.00
6552;DHT22;3309;48.708;9.290;2024-01-15T14:49:09;1.70;1.00
6552;DHT22;3309;48.708;9.290;2024-01-15T14:51:34;1.60;1.00
6552;DHT22;3309;48.708;9.290;2024-01-15T14:54:00;1.60;1.00
6552;DHT22;3309;48.708;9.290;2024-01-15T14:56:26;1.50;1.00
6552;DHT22;3309;48.708;9.290;2024-01-15T14:58:51;1.50;1.00
6552;DHT22;3309;48.708;9.290;2024-01-15T15:01:17;1.50;1.00
6552;DHT22;3309;48.708;9.290;2024-01-15T15:03:42;1.50;1.00
6552;DHT22;3309;48.708;9.290;2024-01-15T15:06:09;1.40;1.00
6552;DHT22;3309;48.708;9.290;2024-01-15T15:08:35;1.30;1.00
6552;DHT22;3309;48.708;9.290;2024-01-15T15:11:02;1.10;1.00
6552;DHT22;3309;48.708;9.290;2024-01-15T15:13:28;1.10;1.00
6552;DHT22;3309;48.708;9.290;2024-01-15T15:15:53;1.10;1.00
6552;DHT22;3309;48.708;9.290;2024-01-15T15:18:20;1.00;1.00
6552;DHT22;3309;48.708;9.290;2024-01-15T15:20:50;1.00;1.00
6552;DHT22;3309;48.708;9.290;2024-01-15T15:23:16;1.00;1.00
6552;DHT22;3309;48.708;9.290;2024-01-15T15:25:44;1.00;1.00
6552;DHT22;3309;48.708;9.290;2024-01-15T15:28:11;0.90;1.00
6552;DHT22;3309;48.708;9.290;2024-01-15T15:30:37;0.90;1.00
6552;DHT22;3309;48.708;9.290;2024-01-15T15:33:03;0.90;1.00
6552;DHT22;3309;48.708;9.290;2024-01-15T15:35:32;0.90;1.00
6552;DHT22;3309;48.708;9.290;2024-01-15T15:37:57;0.90;1.00
6552;DHT22;3309;48.708;9.290;2024-01-15T15:40:23;1.00;1.00
6552;DHT22;3309;48.708;9.290;2024-01-15T15:42:50;1.00;1.00
6552;DHT22;3309;48.708;9.290;2024-01-15T15:45:16;1.10;1.00
6552;DHT22;3309;48.708;9.290;2024-01-15T15:47:42;1.30;1.00
6552;DHT22;3309;48.708;9.290;2024-01-15T15:50:08;1.50;5.00
6552;DHT22;3309;48.708;9.290;2024-01-15T15:52:33;1.60;1.00
6552;DHT22;3309;48.708;9.290;2024-01-15T15:55:00;1.50;1.00
6552;DHT22;3309;48.708;9.290;2024-01-15T15:57:25;1.40;1.00
6552;DHT22;3309;48.708;9.290;2024-01-15T15:59:52;1.30;1.00
6552;DHT22;3309;48.708;9.290;2024-01-15T16:02:21;1.20;1.00
6552;DHT22;3309;48.708;9.290;2024-01-15T16:04:46;1.10;1.00
6552;DHT22;3309;48.708;9.290;2024-01-15T16:07:12;1.10;1.00
6552;DHT22;3309;48.708;9.290;2024-01-15T16:09:39;1.10;1.00
6552;DHT22;3309;48.708;9.290;2024-01-15T16:12:05;1.20;1.00
6552;DHT22;3309;48.708;9.290;2024-01-15T16:14:31;1.10;1.00
6552;DHT22;3309;48.708;9.290;2024-01-15T16:16:56;1.10;1.00
6552;DHT22;3309;48.708;9.290;2024-01-15T16:19:24;1.10;1.00
6552;DHT22;3309;48.708;9.290;2024-01-15T16:21:49;1.00;1.00
6552;DHT22;3309;48.708;9.290;2024-01-15T16:24:15;1.00;1.00
6552;DHT22;3309;48.708;9.290;2024-01-15T16:26:41;1.00;1.00
6552;DHT22;3309;48.708;9.290;2024-01-15T16:29:07;0.90;99.90
6552;DHT22;3309;48.708;9.290;2024-01-15T16:31:33;0.90;79.30